Magazine, Alabama
Current Conditions -  °F | °C
As of 9:53 PM on Tuesday 21 Oct 2014 (Local Time) from KBFM Reporting Station
Clear Clear  
Wind Chill: 60°   Ceiling: Unl
Heat Index: 60°   Visibility: 10mi
Dew Point: 57°   Wind: 3mph
Humidity: 90%   Direction: 310°NW
Pressure: 30.04"   Gusts: NA
Location:  30.7374°N, 88.0708°W
Report Text: KBFM 220253Z AUTO 31003KT 10SM CLR 16/14 A3004 RMK AO2 SLP173 T01560139 51018
Loading
Personal Weather Stations






























Interactive Weather Map
Tropical Storm Tracking
New forecast layout! Learn more

10-Day Weather Forecast

Advertisements
Track Severe Weather on mobile